createdAt,value
2024-01-18T00:01:17.502Z,9.40
2024-01-18T00:03:45.196Z,8.06
2024-01-18T00:06:12.876Z,7.10
2024-01-18T00:08:40.594Z,6.42
2024-01-18T00:11:08.249Z,5.92
2024-01-18T00:13:35.934Z,5.52
2024-01-18T00:16:03.555Z,5.87
2024-01-18T00:18:31.406Z,8.92
2024-01-18T00:20:59.199Z,10.81
2024-01-18T00:23:26.857Z,9.72
2024-01-18T00:25:54.634Z,8.35
2024-01-18T00:28:22.448Z,7.39
2024-01-18T00:30:50.060Z,6.73
2024-01-18T00:33:17.829Z,6.23
2024-01-18T00:35:45.666Z,6.57
2024-01-18T00:38:13.383Z,9.64
2024-01-18T00:40:43.185Z,11.45
2024-01-18T00:43:11.458Z,10.29
2024-01-18T00:45:39.251Z,8.89
2024-01-18T00:48:07.129Z,7.92
2024-01-18T00:50:34.898Z,7.25
2024-01-18T00:53:02.578Z,6.77
2024-01-18T00:55:30.237Z,7.19
2024-01-18T00:57:57.896Z,10.16
2024-01-18T01:00:25.584Z,11.63
2024-01-18T01:02:53.328Z,10.41
2024-01-18T01:05:20.996Z,9.09
2024-01-18T01:07:48.622Z,8.16
2024-01-18T01:10:17.082Z,7.54
2024-01-18T01:12:45.398Z,7.05
2024-01-18T01:15:13.195Z,6.67
2024-01-18T01:17:41.006Z,7.01
2024-01-18T01:20:11.077Z,9.99
2024-01-18T01:22:38.819Z,11.78
2024-01-18T01:25:07.151Z,10.71
2024-01-18T01:27:34.808Z,9.41
2024-01-18T01:30:03.153Z,8.48
2024-01-18T01:32:30.982Z,7.80
2024-01-18T01:34:58.674Z,7.31
2024-01-18T01:37:26.346Z,7.25
2024-01-18T01:39:54.064Z,9.76
2024-01-18T01:42:21.716Z,11.96
2024-01-18T01:44:51.302Z,11.22
2024-01-18T01:47:18.950Z,9.83
2024-01-18T01:49:46.624Z,8.80
2024-01-18T01:52:14.426Z,8.08
2024-01-18T01:54:42.287Z,7.57
2024-01-18T01:57:09.957Z,8.42
2024-01-18T01:59:37.598Z,11.28
2024-01-18T02:02:05.246Z,11.88
2024-01-18T02:04:33.373Z,10.58
2024-01-18T02:07:01.038Z,9.43
2024-01-18T02:09:28.851Z,8.59
2024-01-18T02:11:56.605Z,8.00
2024-01-18T02:14:24.244Z,7.55
2024-01-18T02:16:51.972Z,7.94
2024-01-18T02:19:19.726Z,10.64
2024-01-18T02:21:47.489Z,12.27
2024-01-18T02:24:15.133Z,11.27
2024-01-18T02:26:42.789Z,9.93
2024-01-18T02:29:10.492Z,8.97
2024-01-18T02:31:38.080Z,8.30
2024-01-18T02:34:05.811Z,7.79
2024-01-18T02:36:33.649Z,8.00
2024-01-18T02:39:01.285Z,10.68
2024-01-18T02:41:28.981Z,12.32
2024-01-18T02:43:56.634Z,11.31
2024-01-18T02:46:24.243Z,10.00
2024-01-18T02:48:51.936Z,9.05
2024-01-18T02:51:19.739Z,8.37
2024-01-18T02:53:47.419Z,8.53
2024-01-18T02:56:15.327Z,11.20
2024-01-18T02:58:42.951Z,12.78
2024-01-18T03:01:10.704Z,11.68
2024-01-18T03:03:38.357Z,10.32
2024-01-18T03:06:06.156Z,9.37
2024-01-18T03:08:34.453Z,8.67
2024-01-18T03:11:02.070Z,8.15
2024-01-18T03:13:29.749Z,8.39
2024-01-18T03:15:57.389Z,11.16
2024-01-18T03:18:25.372Z,12.81
2024-01-18T03:20:53.049Z,11.71
2024-01-18T03:23:20.678Z,10.37
2024-01-18T03:25:48.699Z,9.41
2024-01-18T03:28:16.323Z,8.72
2024-01-18T03:30:44.096Z,8.86
2024-01-18T03:33:12.058Z,11.45
2024-01-18T03:35:40.349Z,12.95
2024-01-18T03:38:08.746Z,11.86
2024-01-18T03:40:36.732Z,10.53
2024-01-18T03:43:04.412Z,9.55
2024-01-18T03:45:32.077Z,8.84
2024-01-18T03:47:59.915Z,9.90
2024-01-18T03:50:27.593Z,12.42
2024-01-18T03:52:55.245Z,12.89
2024-01-18T03:55:22.883Z,11.46
2024-01-18T03:57:50.508Z,10.20
2024-01-18T04:00:18.178Z,9.27
2024-01-18T04:02:45.818Z,9.21
2024-01-18T04:05:13.561Z,11.78
2024-01-18T04:07:41.315Z,13.17
2024-01-18T04:10:11.725Z,11.97
2024-01-18T04:12:39.516Z,10.52
2024-01-18T04:15:07.423Z,9.51
2024-01-18T04:17:35.560Z,9.44
2024-01-18T04:20:06.888Z,11.84
2024-01-18T04:22:34.607Z,13.17
2024-01-18T04:25:02.265Z,11.96
2024-01-18T04:27:30.004Z,10.59
2024-01-18T04:29:57.843Z,9.59
2024-01-18T04:32:25.498Z,9.54
2024-01-18T04:34:53.136Z,11.91
2024-01-18T04:37:20.757Z,13.25
2024-01-18T04:39:48.393Z,12.08
2024-01-18T04:42:17.793Z,10.68
2024-01-18T04:44:45.540Z,9.63
2024-01-18T04:47:13.172Z,9.52
2024-01-18T04:49:40.815Z,11.86
2024-01-18T04:52:08.455Z,13.21
2024-01-18T04:54:36.099Z,12.04
2024-01-18T04:57:03.810Z,10.64
2024-01-18T04:59:31.429Z,9.62
2024-01-18T05:01:59.482Z,9.69
2024-01-18T05:04:27.311Z,12.03
2024-01-18T05:06:55.149Z,13.16
2024-01-18T05:09:22.927Z,11.89
2024-01-18T05:11:50.532Z,10.53
2024-01-18T05:14:18.157Z,9.53
2024-01-18T05:16:51.950Z,9.58
2024-01-18T05:19:19.698Z,12.09
2024-01-18T05:21:47.436Z,13.10
2024-01-18T05:24:15.131Z,11.79
2024-01-18T05:26:42.748Z,10.47
2024-01-18T05:29:10.356Z,9.50
2024-01-18T05:31:38.486Z,9.59
2024-01-18T05:34:06.286Z,12.07
2024-01-18T05:36:34.034Z,13.12
2024-01-18T05:39:01.700Z,11.83
2024-01-18T05:41:29.342Z,10.50
2024-01-18T05:43:56.934Z,9.52
2024-01-18T05:46:24.959Z,9.63
2024-01-18T05:48:52.744Z,12.09
2024-01-18T05:51:21.312Z,13.20
2024-01-18T05:53:48.959Z,11.92
2024-01-18T05:56:16.554Z,10.59
2024-01-18T05:58:46.568Z,9.65
2024-01-18T06:01:14.761Z,9.74
2024-01-18T06:03:42.816Z,12.17
2024-01-18T06:06:10.653Z,13.17
2024-01-18T06:08:38.421Z,11.90
2024-01-18T06:11:06.017Z,10.59
2024-01-18T06:13:33.715Z,9.64
2024-01-18T06:16:01.354Z,9.69
2024-01-18T06:18:29.146Z,12.13
2024-01-18T06:20:56.940Z,13.02
2024-01-18T06:23:24.566Z,11.69
2024-01-18T06:25:52.316Z,10.40
2024-01-18T06:28:19.975Z,9.46
2024-01-18T06:30:47.737Z,9.62
2024-01-18T06:33:15.635Z,11.99
2024-01-18T06:35:43.520Z,13.18
2024-01-18T06:38:11.157Z,11.94
2024-01-18T06:40:41.234Z,10.59
2024-01-18T06:43:10.231Z,9.61
2024-01-18T06:45:38.016Z,9.75
2024-01-18T06:48:06.081Z,12.19
2024-01-18T06:50:33.938Z,13.37
2024-01-18T06:53:03.422Z,12.12
2024-01-18T06:55:31.090Z,10.76
2024-01-18T06:58:03.754Z,9.78
2024-01-18T07:00:32.123Z,9.86
2024-01-18T07:03:00.086Z,12.32
2024-01-18T07:05:27.830Z,13.30
2024-01-18T07:07:55.515Z,12.01
2024-01-18T07:10:23.812Z,10.69
2024-01-18T07:12:51.470Z,9.73
2024-01-18T07:15:21.114Z,10.36
2024-01-18T07:17:48.822Z,12.85
2024-01-18T07:20:16.540Z,13.16
2024-01-18T07:22:44.199Z,11.70
2024-01-18T07:25:14.148Z,10.44
2024-01-18T07:27:41.875Z,9.51
2024-01-18T07:30:09.580Z,9.99
2024-01-18T07:32:37.427Z,12.50
2024-01-18T07:35:05.554Z,13.31
2024-01-18T07:37:33.522Z,11.95
2024-01-18T07:40:01.665Z,10.65
2024-01-18T07:42:29.501Z,9.72
2024-01-18T07:44:57.106Z,10.49
2024-01-18T07:47:24.838Z,12.93
2024-01-18T07:49:52.623Z,13.24
2024-01-18T07:52:20.269Z,11.82
2024-01-18T07:54:50.694Z,10.58
2024-01-18T07:57:18.473Z,9.78
2024-01-18T07:59:46.167Z,11.06
2024-01-18T08:02:13.812Z,13.34
2024-01-18T08:04:41.526Z,13.18
2024-01-18T08:07:09.262Z,11.75
2024-01-18T08:09:39.545Z,10.60
2024-01-18T08:12:07.468Z,10.37
2024-01-18T08:14:35.189Z,12.67
2024-01-18T08:17:02.793Z,13.60
2024-01-18T08:19:30.521Z,12.32
2024-01-18T08:21:59.129Z,11.05
2024-01-18T08:24:27.114Z,10.14
2024-01-18T08:26:54.781Z,10.38
2024-01-18T08:29:22.410Z,12.85
2024-01-18T08:31:50.180Z,13.91
2024-01-18T08:34:17.786Z,12.64
2024-01-18T08:36:45.456Z,11.28
2024-01-18T08:39:13.256Z,10.28
2024-01-18T08:41:40.866Z,10.30
2024-01-18T08:44:08.474Z,12.69
2024-01-18T08:46:36.154Z,13.78
2024-01-18T08:49:03.855Z,12.50
2024-01-18T08:51:31.709Z,11.15
2024-01-18T08:53:59.504Z,10.21
2024-01-18T08:56:31.052Z,10.31
2024-01-18T08:58:59.358Z,12.80
2024-01-18T09:01:27.027Z,13.73
2024-01-18T09:03:54.756Z,12.42
2024-01-18T09:06:22.543Z,11.12
2024-01-18T09:08:50.181Z,10.20
2024-01-18T09:11:17.849Z,10.90
2024-01-18T09:13:45.473Z,13.40
2024-01-18T09:16:13.159Z,13.75
2024-01-18T09:18:50.172Z,12.33
2024-01-18T09:21:23.997Z,11.00
2024-01-18T09:23:51.634Z,10.21
2024-01-18T09:26:19.224Z,11.43
2024-01-18T09:28:46.845Z,13.71
2024-01-18T09:31:23.854Z,13.48
2024-01-18T09:33:59.060Z,11.84
2024-01-18T09:36:26.744Z,10.70
2024-01-18T09:38:54.504Z,10.44
2024-01-18T09:41:22.202Z,12.66
2024-01-18T09:43:50.227Z,13.96
2024-01-18T09:46:17.851Z,12.76
2024-01-18T09:48:45.730Z,11.35
2024-01-18T09:51:13.582Z,10.34
2024-01-18T09:53:45.606Z,10.26
2024-01-18T09:56:13.308Z,12.66
2024-01-18T09:58:41.135Z,13.95
2024-01-18T10:01:08.928Z,12.75
2024-01-18T10:03:36.739Z,11.38
2024-01-18T10:06:04.500Z,10.39
2024-01-18T10:08:32.406Z,10.85
2024-01-18T10:11:00.011Z,13.24
2024-01-18T10:13:28.101Z,13.96
2024-01-18T10:15:55.731Z,12.62
2024-01-18T10:18:23.400Z,11.35
2024-01-18T10:20:51.133Z,10.49
2024-01-18T10:23:18.718Z,11.36
2024-01-18T10:25:47.022Z,13.70
2024-01-18T10:28:15.928Z,13.68
2024-01-18T10:30:43.656Z,12.25
2024-01-18T10:33:13.314Z,11.06
2024-01-18T10:35:41.049Z,10.89
2024-01-18T10:38:08.838Z,13.02
2024-01-18T10:40:39.341Z,13.74
2024-01-18T10:43:07.034Z,12.40
2024-01-18T10:45:34.710Z,11.18
2024-01-18T10:48:02.493Z,10.35
2024-01-18T10:50:30.232Z,11.41
2024-01-18T10:52:57.837Z,13.66
2024-01-18T10:55:25.484Z,13.53
2024-01-18T10:57:53.475Z,12.18
2024-01-18T11:00:21.359Z,11.11
2024-01-18T11:02:49.089Z,10.42
2024-01-18T11:05:20.164Z,11.65
2024-01-18T11:07:48.087Z,13.87
2024-01-18T11:10:15.829Z,13.50
2024-01-18T11:12:46.114Z,12.13
2024-01-18T11:15:14.825Z,11.01
2024-01-18T11:17:42.585Z,10.86
2024-01-18T11:20:10.786Z,13.04
2024-01-18T11:22:40.364Z,14.11
2024-01-18T11:25:08.412Z,12.86
2024-01-18T11:27:36.131Z,11.50
2024-01-18T11:30:04.655Z,11.03
2024-01-18T11:32:32.314Z,13.05
2024-01-18T11:34:59.949Z,14.11
2024-01-18T11:37:27.953Z,12.88
2024-01-18T11:39:55.689Z,11.58
2024-01-18T11:42:23.349Z,10.62
2024-01-18T11:44:51.868Z,11.43
2024-01-18T11:47:19.943Z,13.70
2024-01-18T11:49:47.673Z,13.70
2024-01-18T11:52:15.277Z,12.23
2024-01-18T11:54:42.943Z,11.03
2024-01-18T11:57:14.262Z,10.88
2024-01-18T11:59:42.869Z,13.11
2024-01-18T12:02:10.530Z,13.95
2024-01-18T12:04:38.223Z,12.63
2024-01-18T12:07:06.032Z,11.34
2024-01-18T12:09:33.799Z,10.44
2024-01-18T12:12:01.906Z,11.35
2024-01-18T12:14:29.873Z,13.68
2024-01-18T12:16:58.118Z,13.47
2024-01-18T12:19:25.747Z,12.03
2024-01-18T12:21:53.502Z,10.86
2024-01-18T12:24:21.489Z,10.11
2024-01-18T12:26:49.092Z,11.46
2024-01-18T12:29:16.720Z,13.60
2024-01-18T12:31:44.342Z,13.07
2024-01-18T12:34:12.038Z,11.69
2024-01-18T12:36:40.273Z,10.62
2024-01-18T12:39:08.039Z,10.46
2024-01-18T12:41:35.698Z,12.59
2024-01-18T12:44:03.372Z,13.56
2024-01-18T12:46:30.965Z,12.32
2024-01-18T12:48:58.682Z,11.08
2024-01-18T12:51:26.332Z,10.14
2024-01-18T12:53:53.960Z,10.14
2024-01-18T12:56:21.593Z,12.36
2024-01-18T12:58:49.258Z,13.50
2024-01-18T13:01:16.951Z,12.34
2024-01-18T13:03:44.684Z,11.07
2024-01-18T13:06:14.085Z,10.11
2024-01-18T13:08:41.763Z,9.95
2024-01-18T13:11:09.511Z,12.15
2024-01-18T13:13:37.173Z,13.26
2024-01-18T13:16:05.041Z,12.01
2024-01-18T13:18:32.940Z,10.67
2024-01-18T13:21:00.695Z,9.70
2024-01-18T13:23:28.309Z,9.62
2024-01-18T13:25:55.950Z,11.87
2024-01-18T13:28:23.596Z,12.92
2024-01-18T13:30:51.494Z,11.62
2024-01-18T13:33:19.278Z,10.29
2024-01-18T13:35:46.975Z,9.33
2024-01-18T13:38:16.950Z,9.18
2024-01-18T13:40:44.596Z,11.40
2024-01-18T13:43:12.205Z,12.71
2024-01-18T13:45:39.846Z,11.56
2024-01-18T13:48:08.400Z,10.22
2024-01-18T13:50:36.156Z,9.26
2024-01-18T13:53:05.142Z,9.32
2024-01-18T13:55:32.795Z,11.67
2024-01-18T13:58:01.044Z,12.71
2024-01-18T14:00:29.380Z,11.45
2024-01-18T14:02:57.125Z,10.14
2024-01-18T14:05:24.825Z,9.19
2024-01-18T14:07:52.664Z,9.06
2024-01-18T14:10:20.303Z,11.26
2024-01-18T14:12:47.950Z,12.66
2024-01-18T14:15:15.649Z,11.58
2024-01-18T14:17:43.407Z,10.28
2024-01-18T14:20:11.135Z,9.34
2024-01-18T14:22:38.922Z,9.31
2024-01-18T14:25:07.245Z,11.50
2024-01-18T14:27:34.881Z,12.39
2024-01-18T14:30:02.507Z,11.19
2024-01-18T14:32:31.008Z,10.01
2024-01-18T14:34:58.860Z,9.17
2024-01-18T14:37:26.597Z,9.22
2024-01-18T14:39:54.255Z,11.48
2024-01-18T14:42:22.053Z,12.68
2024-01-18T14:44:49.812Z,11.53
2024-01-18T14:47:17.794Z,10.28
2024-01-18T14:49:45.519Z,9.35
2024-01-18T14:52:13.314Z,8.62
2024-01-18T14:54:41.006Z,9.60
2024-01-18T14:57:09.144Z,11.94
2024-01-18T14:59:36.763Z,11.88
2024-01-18T15:02:06.004Z,10.49
2024-01-18T15:04:34.329Z,9.36
2024-01-18T15:07:02.158Z,8.58
2024-01-18T15:09:29.978Z,9.67
2024-01-18T15:11:57.623Z,12.04
2024-01-18T15:14:25.248Z,12.03
2024-01-18T15:16:52.894Z,10.66
2024-01-18T15:19:20.663Z,9.56
2024-01-18T15:21:48.549Z,8.77
2024-01-18T15:24:16.207Z,9.10
2024-01-18T15:26:44.091Z,11.46
2024-01-18T15:29:11.916Z,12.05
2024-01-18T15:31:39.544Z,10.72
2024-01-18T15:34:08.255Z,9.45
2024-01-18T15:36:36.048Z,8.50
2024-01-18T15:39:04.827Z,8.63
2024-01-18T15:41:33.379Z,11.00
2024-01-18T15:44:01.240Z,12.02
2024-01-18T15:46:28.947Z,10.82
2024-01-18T15:48:59.314Z,9.59
2024-01-18T15:51:27.390Z,8.72
2024-01-18T15:53:55.083Z,9.44
2024-01-18T15:56:22.739Z,11.76
2024-01-18T15:58:50.395Z,12.02
2024-01-18T16:01:18.083Z,10.72
2024-01-18T16:03:45.798Z,9.61
2024-01-18T16:06:13.477Z,8.81
2024-01-18T16:08:42.069Z,8.85
2024-01-18T16:11:10.146Z,11.06
2024-01-18T16:13:37.770Z,12.04
2024-01-18T16:16:05.508Z,10.86
2024-01-18T16:18:33.387Z,9.62
2024-01-18T16:21:01.293Z,8.71
2024-01-18T16:23:29.590Z,8.65
2024-01-18T16:25:57.532Z,10.80
2024-01-18T16:28:25.193Z,11.82
2024-01-18T16:30:52.854Z,10.61
2024-01-18T16:33:20.857Z,9.39
2024-01-18T16:35:49.842Z,8.53
2024-01-18T16:38:17.485Z,8.84
2024-01-18T16:40:45.184Z,11.03
2024-01-18T16:43:12.810Z,11.60
2024-01-18T16:45:40.712Z,10.22
2024-01-18T16:48:08.594Z,8.96
2024-01-18T16:50:36.605Z,8.11
2024-01-18T16:53:04.513Z,9.07
2024-01-18T16:55:34.305Z,11.44
2024-01-18T16:58:02.045Z,11.81
2024-01-18T17:00:29.904Z,10.47
2024-01-18T17:02:57.596Z,9.31
2024-01-18T17:05:25.867Z,8.40
2024-01-18T17:07:53.649Z,7.76
2024-01-18T17:10:21.280Z,9.14
2024-01-18T17:12:48.907Z,11.45
2024-01-18T17:15:16.542Z,11.45
2024-01-18T17:17:44.251Z,10.12
2024-01-18T17:20:11.916Z,9.03
2024-01-18T17:22:39.602Z,8.21
2024-01-18T17:25:07.267Z,8.17
2024-01-18T17:27:35.545Z,10.37
2024-01-18T17:30:03.315Z,11.67
2024-01-18T17:32:31.026Z,10.54
2024-01-18T17:34:58.858Z,9.23
2024-01-18T17:37:26.534Z,8.27
2024-01-18T17:39:54.155Z,8.18
2024-01-18T17:42:21.767Z,10.33
2024-01-18T17:44:49.472Z,11.72
2024-01-18T17:47:20.399Z,10.72
2024-01-18T17:49:48.524Z,9.46
2024-01-18T17:52:16.336Z,8.56
2024-01-18T17:54:43.965Z,7.94
2024-01-18T17:57:12.093Z,8.98
2024-01-18T17:59:39.794Z,11.43
2024-01-18T18:02:08.333Z,11.14
2024-01-18T18:04:36.599Z,9.66
2024-01-18T18:07:04.238Z,8.45
2024-01-18T18:09:31.851Z,7.55
2024-01-18T18:11:59.532Z,7.54
2024-01-18T18:14:31.287Z,10.03
2024-01-18T18:17:00.419Z,11.52
2024-01-18T18:19:28.030Z,10.29
2024-01-18T18:21:56.127Z,8.76
2024-01-18T18:24:23.759Z,7.58
2024-01-18T18:26:51.527Z,7.27
2024-01-18T18:29:19.309Z,9.49
2024-01-18T18:31:46.935Z,11.10
2024-01-18T18:34:20.656Z,9.96
2024-01-18T18:36:54.409Z,8.26
2024-01-18T18:39:22.137Z,7.10
2024-01-18T18:41:49.865Z,6.89
2024-01-18T18:44:17.546Z,9.09
2024-01-18T18:46:45.181Z,10.81
2024-01-18T18:49:12.870Z,11.16
2024-01-18T18:51:40.485Z,9.58
2024-01-18T18:54:08.136Z,8.07
2024-01-18T18:56:35.797Z,6.93
2024-01-18T18:59:07.521Z,6.63
2024-01-18T19:01:35.506Z,8.78
2024-01-18T19:04:03.175Z,10.51
2024-01-18T19:06:31.132Z,10.40
2024-01-18T19:08:58.792Z,8.83
2024-01-18T19:11:26.434Z,7.50
2024-01-18T19:13:54.933Z,6.53
2024-01-18T19:16:22.639Z,6.49
2024-01-18T19:18:50.371Z,8.94
2024-01-18T19:21:18.133Z,10.48
2024-01-18T19:23:45.803Z,9.39
2024-01-18T19:26:13.461Z,7.89
2024-01-18T19:28:41.123Z,6.84
2024-01-18T19:31:08.729Z,6.07
2024-01-18T19:33:36.321Z,6.30
2024-01-18T19:36:03.973Z,8.94
2024-01-18T19:38:31.603Z,10.45
2024-01-18T19:40:59.381Z,9.19
2024-01-18T19:43:27.032Z,7.76
2024-01-18T19:45:59.371Z,6.72
2024-01-18T19:48:27.115Z,5.96
2024-01-18T19:50:54.919Z,6.42
2024-01-18T19:53:22.815Z,9.24
2024-01-18T19:55:53.216Z,10.44
2024-01-18T19:58:20.854Z,9.05
2024-01-18T20:00:48.556Z,7.62
2024-01-18T20:03:16.947Z,6.57
2024-01-18T20:05:45.715Z,5.81
2024-01-18T20:08:13.642Z,6.30
2024-01-18T20:10:41.267Z,8.77
2024-01-18T20:13:09.464Z,9.84
2024-01-18T20:15:37.087Z,8.60
2024-01-18T20:18:04.852Z,7.27
2024-01-18T20:20:32.653Z,6.33
2024-01-18T20:23:01.743Z,6.40
2024-01-18T20:25:29.702Z,9.02
2024-01-18T20:27:58.492Z,10.32
2024-01-18T20:30:29.999Z,8.95
2024-01-18T20:32:57.848Z,7.55
2024-01-18T20:35:25.858Z,6.51
2024-01-18T20:37:53.712Z,6.27
2024-01-18T20:40:26.947Z,8.43
2024-01-18T20:42:55.192Z,9.95
2024-01-18T20:45:23.057Z,8.76
2024-01-18T20:47:50.752Z,7.36
2024-01-18T20:50:19.221Z,6.36
2024-01-18T20:52:46.834Z,6.37
2024-01-18T20:55:14.786Z,8.83
2024-01-18T20:57:42.476Z,10.23
2024-01-18T21:00:15.525Z,8.97
2024-01-18T21:02:46.536Z,7.36
2024-01-18T21:05:14.411Z,6.26
2024-01-18T21:07:42.003Z,5.97
2024-01-18T21:10:13.065Z,8.14
2024-01-18T21:12:41.755Z,9.62
2024-01-18T21:15:09.363Z,8.33
2024-01-18T21:17:40.253Z,6.79
2024-01-18T21:20:09.073Z,5.66
2024-01-18T21:22:36.727Z,4.99
2024-01-18T21:25:04.309Z,6.49
2024-01-18T21:27:31.897Z,8.64
2024-01-18T21:29:59.571Z,9.43
2024-01-18T21:32:27.246Z,7.99
2024-01-18T21:34:54.956Z,6.42
2024-01-18T21:37:22.689Z,5.34
2024-01-18T21:39:50.265Z,4.57
2024-01-18T21:42:20.865Z,5.55
2024-01-18T21:44:49.475Z,8.31
2024-01-18T21:47:17.918Z,9.16
2024-01-18T21:49:45.941Z,7.67
2024-01-18T21:52:13.970Z,6.26
2024-01-18T21:54:41.650Z,5.25
2024-01-18T21:57:09.310Z,5.00
2024-01-18T21:59:42.135Z,7.13
2024-01-18T22:02:11.748Z,9.19
2024-01-18T22:04:39.831Z,8.37
2024-01-18T22:07:07.672Z,6.79
2024-01-18T22:09:41.781Z,5.57
2024-01-18T22:12:11.071Z,4.65
2024-01-18T22:14:38.948Z,5.32
2024-01-18T22:17:06.818Z,8.11
2024-01-18T22:19:43.171Z,9.26
2024-01-18T22:22:19.438Z,7.69
2024-01-18T22:24:47.230Z,6.24
2024-01-18T22:27:15.171Z,5.20
2024-01-18T22:29:42.989Z,4.49
2024-01-18T22:32:13.846Z,5.59
2024-01-18T22:34:42.674Z,7.83
2024-01-18T22:37:10.280Z,9.04
2024-01-18T22:39:37.901Z,7.77
2024-01-18T22:42:05.517Z,6.05
2024-01-18T22:44:33.164Z,4.90
2024-01-18T22:47:00.881Z,5.52
2024-01-18T22:49:28.644Z,7.93
2024-01-18T22:51:56.597Z,8.95
2024-01-18T22:54:24.268Z,7.61
2024-01-18T22:56:52.044Z,5.92
2024-01-18T22:59:19.814Z,4.80
2024-01-18T23:01:48.471Z,4.47
2024-01-18T23:04:16.251Z,6.47
2024-01-18T23:06:44.029Z,8.31
2024-01-18T23:09:12.066Z,7.32
2024-01-18T23:11:41.227Z,5.82
2024-01-18T23:14:09.124Z,4.76
2024-01-18T23:16:36.885Z,3.98
2024-01-18T23:19:04.854Z,4.09
2024-01-18T23:21:32.735Z,7.06
2024-01-18T23:24:00.595Z,8.80
2024-01-18T23:26:28.566Z,7.57
2024-01-18T23:28:56.336Z,6.13
2024-01-18T23:31:24.087Z,5.10
2024-01-18T23:33:52.694Z,4.34
2024-01-18T23:36:20.662Z,3.85
2024-01-18T23:38:48.504Z,5.61
2024-01-18T23:41:16.292Z,8.47
2024-01-18T23:43:43.930Z,8.24
2024-01-18T23:46:11.598Z,6.67
2024-01-18T23:48:39.548Z,5.46
2024-01-18T23:51:07.161Z,4.62
2024-01-18T23:53:34.944Z,4.70
2024-01-18T23:56:02.594Z,7.40
2024-01-18T23:58:30.197Z,8.64
